sensor_id;sensor_type;location;lat;lon;timestamp;P1;durP1;ratioP1;P2;durP2;ratioP2
66384;SDS011;53426;55.872;37.462;2023-06-22T00:01:28;24.67;;;9.73;;
66384;SDS011;53426;55.872;37.462;2023-06-22T00:03:54;26.67;;;8.13;;
66384;SDS011;53426;55.872;37.462;2023-06-22T00:06:20;23.85;;;8.45;;
66384;SDS011;53426;55.872;37.462;2023-06-22T00:08:46;38.92;;;10.05;;
66384;SDS011;53426;55.872;37.462;2023-06-22T00:11:12;27.90;;;8.27;;
66384;SDS011;53426;55.872;37.462;2023-06-22T00:13:38;28.13;;;8.30;;
66384;SDS011;53426;55.872;37.462;2023-06-22T00:16:04;20.65;;;7.15;;
66384;SDS011;53426;55.872;37.462;2023-06-22T00:18:30;18.05;;;6.32;;
66384;SDS011;53426;55.872;37.462;2023-06-22T00:20:57;14.30;;;7.07;;
66384;SDS011;53426;55.872;37.462;2023-06-22T00:23:24;14.85;;;7.10;;
66384;SDS011;53426;55.872;37.462;2023-06-22T00:25:51;15.55;;;6.57;;
66384;SDS011;53426;55.872;37.462;2023-06-22T00:28:17;20.50;;;7.35;;
66384;SDS011;53426;55.872;37.462;2023-06-22T00:30:43;11.30;;;6.22;;
66384;SDS011;53426;55.872;37.462;2023-06-22T00:33:10;14.15;;;6.25;;
66384;SDS011;53426;55.872;37.462;2023-06-22T00:35:36;14.65;;;5.72;;
66384;SDS011;53426;55.872;37.462;2023-06-22T00:38:02;19.92;;;7.35;;
66384;SDS011;53426;55.872;37.462;2023-06-22T00:40:30;16.75;;;7.70;;
66384;SDS011;53426;55.872;37.462;2023-06-22T00:42:58;14.05;;;6.80;;
66384;SDS011;53426;55.872;37.462;2023-06-22T00:45:25;14.23;;;7.22;;
66384;SDS011;53426;55.872;37.462;2023-06-22T00:47:52;14.00;;;6.47;;
66384;SDS011;53426;55.872;37.462;2023-06-22T00:50:22;18.00;;;7.22;;
66384;SDS011;53426;55.872;37.462;2023-06-22T00:52:51;23.63;;;8.35;;
66384;SDS011;53426;55.872;37.462;2023-06-22T00:55:19;13.85;;;6.90;;
66384;SDS011;53426;55.872;37.462;2023-06-22T00:57:47;15.82;;;7.55;;
66384;SDS011;53426;55.872;37.462;2023-06-22T01:00:14;13.60;;;6.32;;
66384;SDS011;53426;55.872;37.462;2023-06-22T01:02:43;19.55;;;7.43;;
66384;SDS011;53426;55.872;37.462;2023-06-22T01:05:14;15.23;;;6.50;;
66384;SDS011;53426;55.872;37.462;2023-06-22T01:08:29;19.52;;;7.70;;
66384;SDS011;53426;55.872;37.462;2023-06-22T01:13:25;25.75;;;7.60;;
66384;SDS011;53426;55.872;37.462;2023-06-22T01:15:57;59.38;;;32.78;;
66384;SDS011;53426;55.872;37.462;2023-06-22T01:18:30;15.80;;;7.88;;
66384;SDS011;53426;55.872;37.462;2023-06-22T01:21:00;18.35;;;7.10;;
66384;SDS011;53426;55.872;37.462;2023-06-22T01:23:42;14.23;;;7.10;;
66384;SDS011;53426;55.872;37.462;2023-06-22T01:26:35;12.95;;;6.95;;
66384;SDS011;53426;55.872;37.462;2023-06-22T01:29:07;12.27;;;6.63;;
66384;SDS011;53426;55.872;37.462;2023-06-22T01:31:37;20.85;;;7.25;;
66384;SDS011;53426;55.872;37.462;2023-06-22T01:34:07;29.13;;;7.70;;
66384;SDS011;53426;55.872;37.462;2023-06-22T01:36:35;13.55;;;7.70;;
66384;SDS011;53426;55.872;37.462;2023-06-22T01:41:57;18.00;;;7.78;;
66384;SDS011;53426;55.872;37.462;2023-06-22T01:44:24;21.00;;;8.32;;
66384;SDS011;53426;55.872;37.462;2023-06-22T01:46:52;17.42;;;7.85;;
66384;SDS011;53426;55.872;37.462;2023-06-22T01:49:18;13.38;;;8.10;;
66384;SDS011;53426;55.872;37.462;2023-06-22T01:51:44;19.85;;;7.55;;
66384;SDS011;53426;55.872;37.462;2023-06-22T01:54:37;22.17;;;7.80;;
66384;SDS011;53426;55.872;37.462;2023-06-22T01:57:05;28.85;;;8.82;;
66384;SDS011;53426;55.872;37.462;2023-06-22T01:59:36;25.83;;;7.85;;
66384;SDS011;53426;55.872;37.462;2023-06-22T02:02:25;22.50;;;7.35;;
66384;SDS011;53426;55.872;37.462;2023-06-22T02:04:57;13.73;;;6.63;;
66384;SDS011;53426;55.872;37.462;2023-06-22T02:07:32;17.10;;;7.78;;
66384;SDS011;53426;55.872;37.462;2023-06-22T02:10:07;29.73;;;8.35;;
66384;SDS011;53426;55.872;37.462;2023-06-22T02:12:34;24.48;;;8.82;;
66384;SDS011;53426;55.872;37.462;2023-06-22T02:15:02;22.25;;;7.38;;
66384;SDS011;53426;55.872;37.462;2023-06-22T02:17:32;32.40;;;8.15;;
66384;SDS011;53426;55.872;37.462;2023-06-22T02:20:01;20.20;;;7.45;;
66384;SDS011;53426;55.872;37.462;2023-06-22T02:22:35;43.05;;;10.43;;
66384;SDS011;53426;55.872;37.462;2023-06-22T02:25:02;21.55;;;7.90;;
66384;SDS011;53426;55.872;37.462;2023-06-22T02:27:30;28.42;;;8.82;;
66384;SDS011;53426;55.872;37.462;2023-06-22T02:29:56;25.77;;;8.85;;
66384;SDS011;53426;55.872;37.462;2023-06-22T02:32:22;27.08;;;8.52;;
66384;SDS011;53426;55.872;37.462;2023-06-22T02:34:48;27.33;;;9.25;;
66384;SDS011;53426;55.872;37.462;2023-06-22T02:37:16;17.35;;;7.97;;
66384;SDS011;53426;55.872;37.462;2023-06-22T02:39:42;27.13;;;8.18;;
66384;SDS011;53426;55.872;37.462;2023-06-22T02:42:08;16.27;;;6.93;;
66384;SDS011;53426;55.872;37.462;2023-06-22T02:44:36;22.13;;;7.05;;
66384;SDS011;53426;55.872;37.462;2023-06-22T02:47:02;20.58;;;6.55;;
66384;SDS011;53426;55.872;37.462;2023-06-22T02:49:29;9.73;;;5.75;;
66384;SDS011;53426;55.872;37.462;2023-06-22T02:51:56;13.32;;;6.28;;
66384;SDS011;53426;55.872;37.462;2023-06-22T02:54:22;15.80;;;6.25;;
66384;SDS011;53426;55.872;37.462;2023-06-22T02:56:51;18.88;;;6.18;;
66384;SDS011;53426;55.872;37.462;2023-06-22T02:59:19;9.73;;;6.47;;
66384;SDS011;53426;55.872;37.462;2023-06-22T03:01:51;16.67;;;5.90;;
66384;SDS011;53426;55.872;37.462;2023-06-22T03:04:25;20.42;;;6.10;;
66384;SDS011;53426;55.872;37.462;2023-06-22T03:06:54;13.18;;;5.85;;
66384;SDS011;53426;55.872;37.462;2023-06-22T03:09:20;15.30;;;5.20;;
66384;SDS011;53426;55.872;37.462;2023-06-22T03:11:48;18.92;;;5.20;;
66384;SDS011;53426;55.872;37.462;2023-06-22T03:14:14;16.00;;;5.53;;
66384;SDS011;53426;55.872;37.462;2023-06-22T03:19:31;11.27;;;5.57;;
66384;SDS011;53426;55.872;37.462;2023-06-22T03:21:59;12.95;;;5.47;;
66384;SDS011;53426;55.872;37.462;2023-06-22T03:24:25;13.15;;;5.40;;
66384;SDS011;53426;55.872;37.462;2023-06-22T03:30:19;15.82;;;5.60;;
66384;SDS011;53426;55.872;37.462;2023-06-22T03:32:45;15.52;;;5.25;;
66384;SDS011;53426;55.872;37.462;2023-06-22T03:35:12;15.30;;;6.03;;
66384;SDS011;53426;55.872;37.462;2023-06-22T03:37:39;22.42;;;5.60;;
66384;SDS011;53426;55.872;37.462;2023-06-22T03:40:16;15.98;;;5.43;;
66384;SDS011;53426;55.872;37.462;2023-06-22T03:42:42;16.65;;;5.90;;
66384;SDS011;53426;55.872;37.462;2023-06-22T03:45:09;18.08;;;5.55;;
66384;SDS011;53426;55.872;37.462;2023-06-22T03:47:35;10.95;;;5.45;;
66384;SDS011;53426;55.872;37.462;2023-06-22T03:50:03;13.55;;;6.47;;
66384;SDS011;53426;55.872;37.462;2023-06-22T03:52:33;14.52;;;5.43;;
66384;SDS011;53426;55.872;37.462;2023-06-22T03:54:59;11.20;;;5.60;;
66384;SDS011;53426;55.872;37.462;2023-06-22T03:57:25;11.73;;;6.10;;
66384;SDS011;53426;55.872;37.462;2023-06-22T03:59:51;8.55;;;5.43;;
66384;SDS011;53426;55.872;37.462;2023-06-22T04:02:20;15.18;;;5.10;;
66384;SDS011;53426;55.872;37.462;2023-06-22T04:07:34;9.80;;;5.30;;
66384;SDS011;53426;55.872;37.462;2023-06-22T04:10:05;15.95;;;6.22;;
66384;SDS011;53426;55.872;37.462;2023-06-22T04:12:34;13.05;;;5.45;;
66384;SDS011;53426;55.872;37.462;2023-06-22T04:15:01;13.38;;;5.47;;
66384;SDS011;53426;55.872;37.462;2023-06-22T04:17:31;15.25;;;5.50;;
66384;SDS011;53426;55.872;37.462;2023-06-22T04:19:57;17.88;;;5.20;;
66384;SDS011;53426;55.872;37.462;2023-06-22T04:22:23;9.85;;;5.28;;
66384;SDS011;53426;55.872;37.462;2023-06-22T04:24:49;9.43;;;5.32;;
66384;SDS011;53426;55.872;37.462;2023-06-22T04:27:17;14.02;;;5.53;;
66384;SDS011;53426;55.872;37.462;2023-06-22T04:29:44;8.13;;;4.90;;
66384;SDS011;53426;55.872;37.462;2023-06-22T04:32:17;16.23;;;4.95;;
66384;SDS011;53426;55.872;37.462;2023-06-22T04:34:43;8.00;;;4.72;;
66384;SDS011;53426;55.872;37.462;2023-06-22T04:37:12;9.82;;;5.22;;
66384;SDS011;53426;55.872;37.462;2023-06-22T04:39:43;15.05;;;10.63;;
66384;SDS011;53426;55.872;37.462;2023-06-22T04:42:09;9.25;;;4.82;;
66384;SDS011;53426;55.872;37.462;2023-06-22T04:44:35;12.82;;;4.75;;
66384;SDS011;53426;55.872;37.462;2023-06-22T04:47:01;7.65;;;5.05;;
66384;SDS011;53426;55.872;37.462;2023-06-22T04:49:34;6.70;;;4.85;;
66384;SDS011;53426;55.872;37.462;2023-06-22T04:52:05;5.53;;;4.35;;
66384;SDS011;53426;55.872;37.462;2023-06-22T04:54:33;12.80;;;4.85;;
66384;SDS011;53426;55.872;37.462;2023-06-22T04:57:05;10.85;;;4.63;;
66384;SDS011;53426;55.872;37.462;2023-06-22T04:59:36;7.70;;;4.70;;
66384;SDS011;53426;55.872;37.462;2023-06-22T05:02:08;12.50;;;4.50;;
66384;SDS011;53426;55.872;37.462;2023-06-22T05:04:34;9.50;;;5.05;;
66384;SDS011;53426;55.872;37.462;2023-06-22T05:07:06;9.52;;;4.45;;
66384;SDS011;53426;55.872;37.462;2023-06-22T05:09:32;7.63;;;4.57;;
66384;SDS011;53426;55.872;37.462;2023-06-22T05:11:59;6.28;;;4.60;;
66384;SDS011;53426;55.872;37.462;2023-06-22T05:14:28;6.13;;;4.50;;
66384;SDS011;53426;55.872;37.462;2023-06-22T05:16:55;7.88;;;4.80;;
66384;SDS011;53426;55.872;37.462;2023-06-22T05:22:24;7.45;;;4.30;;
66384;SDS011;53426;55.872;37.462;2023-06-22T05:24:52;7.80;;;4.00;;
66384;SDS011;53426;55.872;37.462;2023-06-22T05:27:24;7.50;;;4.68;;
66384;SDS011;53426;55.872;37.462;2023-06-22T05:29:51;8.88;;;4.00;;
66384;SDS011;53426;55.872;37.462;2023-06-22T05:35:38;6.13;;;3.78;;
66384;SDS011;53426;55.872;37.462;2023-06-22T05:38:05;6.85;;;3.83;;
66384;SDS011;53426;55.872;37.462;2023-06-22T05:40:34;4.82;;;3.70;;
66384;SDS011;53426;55.872;37.462;2023-06-22T05:42:59;3.75;;;3.42;;
66384;SDS011;53426;55.872;37.462;2023-06-22T05:45:29;7.40;;;3.70;;
66384;SDS011;53426;55.872;37.462;2023-06-22T05:47:55;5.65;;;3.88;;
66384;SDS011;53426;55.872;37.462;2023-06-22T05:50:21;5.57;;;3.75;;
66384;SDS011;53426;55.872;37.462;2023-06-22T05:52:47;7.28;;;3.65;;
66384;SDS011;53426;55.872;37.462;2023-06-22T05:55:13;4.25;;;3.60;;
66384;SDS011;53426;55.872;37.462;2023-06-22T05:57:40;9.85;;;3.50;;
66384;SDS011;53426;55.872;37.462;2023-06-22T06:00:06;4.95;;;3.70;;
66384;SDS011;53426;55.872;37.462;2023-06-22T06:02:36;4.55;;;3.53;;
66384;SDS011;53426;55.872;37.462;2023-06-22T06:05:03;5.20;;;3.53;;
66384;SDS011;53426;55.872;37.462;2023-06-22T06:07:37;3.58;;;3.28;;
66384;SDS011;53426;55.872;37.462;2023-06-22T06:10:03;4.90;;;3.58;;
66384;SDS011;53426;55.872;37.462;2023-06-22T06:12:30;7.13;;;3.63;;
66384;SDS011;53426;55.872;37.462;2023-06-22T06:14:58;5.05;;;3.38;;
66384;SDS011;53426;55.872;37.462;2023-06-22T06:17:24;6.72;;;3.28;;
66384;SDS011;53426;55.872;37.462;2023-06-22T06:19:50;6.43;;;3.80;;
66384;SDS011;53426;55.872;37.462;2023-06-22T06:22:16;7.63;;;3.45;;
66384;SDS011;53426;55.872;37.462;2023-06-22T06:24:44;6.63;;;3.58;;
66384;SDS011;53426;55.872;37.462;2023-06-22T06:27:11;3.90;;;3.03;;
66384;SDS011;53426;55.872;37.462;2023-06-22T06:29:37;6.55;;;3.10;;
66384;SDS011;53426;55.872;37.462;2023-06-22T06:32:05;4.47;;;3.25;;
66384;SDS011;53426;55.872;37.462;2023-06-22T06:34:31;10.05;;;3.33;;
66384;SDS011;53426;55.872;37.462;2023-06-22T06:36:58;5.25;;;3.15;;
66384;SDS011;53426;55.872;37.462;2023-06-22T06:39:24;4.00;;;3.40;;
66384;SDS011;53426;55.872;37.462;2023-06-22T06:41:51;4.82;;;3.20;;
66384;SDS011;53426;55.872;37.462;2023-06-22T06:44:19;3.00;;;2.50;;
66384;SDS011;53426;55.872;37.462;2023-06-22T06:46:45;4.70;;;3.10;;
66384;SDS011;53426;55.872;37.462;2023-06-22T06:49:12;7.28;;;3.10;;
66384;SDS011;53426;55.872;37.462;2023-06-22T06:51:39;4.53;;;3.20;;
66384;SDS011;53426;55.872;37.462;2023-06-22T06:54:05;3.35;;;3.15;;
66384;SDS011;53426;55.872;37.462;2023-06-22T06:56:31;4.03;;;2.85;;
66384;SDS011;53426;55.872;37.462;2023-06-22T06:59:01;5.88;;;2.70;;
66384;SDS011;53426;55.872;37.462;2023-06-22T07:01:27;6.07;;;2.97;;
66384;SDS011;53426;55.872;37.462;2023-06-22T07:03:59;3.30;;;2.75;;
66384;SDS011;53426;55.872;37.462;2023-06-22T07:06:26;3.92;;;3.58;;
66384;SDS011;53426;55.872;37.462;2023-06-22T07:08:54;4.53;;;3.00;;
66384;SDS011;53426;55.872;37.462;2023-06-22T07:11:21;10.93;;;3.10;;
66384;SDS011;53426;55.872;37.462;2023-06-22T07:13:47;3.28;;;2.97;;
66384;SDS011;53426;55.872;37.462;2023-06-22T07:16:12;13.48;;;3.10;;
66384;SDS011;53426;55.872;37.462;2023-06-22T07:18:39;8.27;;;3.05;;
66384;SDS011;53426;55.872;37.462;2023-06-22T07:21:05;5.97;;;3.38;;
66384;SDS011;53426;55.872;37.462;2023-06-22T07:23:32;6.25;;;3.75;;
66384;SDS011;53426;55.872;37.462;2023-06-22T07:25:58;8.15;;;3.60;;
66384;SDS011;53426;55.872;37.462;2023-06-22T07:28:27;4.10;;;3.15;;
66384;SDS011;53426;55.872;37.462;2023-06-22T07:30:56;4.00;;;3.00;;
66384;SDS011;53426;55.872;37.462;2023-06-22T07:33:23;5.40;;;3.33;;
66384;SDS011;53426;55.872;37.462;2023-06-22T07:35:49;5.78;;;3.50;;
66384;SDS011;53426;55.872;37.462;2023-06-22T07:38:17;7.90;;;3.17;;
66384;SDS011;53426;55.872;37.462;2023-06-22T07:40:43;3.35;;;3.10;;
66384;SDS011;53426;55.872;37.462;2023-06-22T07:43:09;3.10;;;2.88;;
66384;SDS011;53426;55.872;37.462;2023-06-22T07:45:37;5.88;;;3.58;;
66384;SDS011;53426;55.872;37.462;2023-06-22T07:48:04;5.03;;;3.42;;
66384;SDS011;53426;55.872;37.462;2023-06-22T07:50:30;3.80;;;3.33;;
66384;SDS011;53426;55.872;37.462;2023-06-22T07:52:56;7.22;;;3.20;;
66384;SDS011;53426;55.872;37.462;2023-06-22T07:55:22;6.22;;;3.20;;
66384;SDS011;53426;55.872;37.462;2023-06-22T07:57:48;6.70;;;4.03;;
66384;SDS011;53426;55.872;37.462;2023-06-22T08:00:17;5.18;;;3.30;;
66384;SDS011;53426;55.872;37.462;2023-06-22T08:02:44;6.25;;;3.08;;
66384;SDS011;53426;55.872;37.462;2023-06-22T08:05:11;5.25;;;3.22;;
66384;SDS011;53426;55.872;37.462;2023-06-22T08:07:38;9.57;;;3.38;;
66384;SDS011;53426;55.872;37.462;2023-06-22T08:10:04;3.47;;;3.17;;
66384;SDS011;53426;55.872;37.462;2023-06-22T08:12:31;3.10;;;2.80;;
66384;SDS011;53426;55.872;37.462;2023-06-22T08:14:58;4.60;;;2.95;;
66384;SDS011;53426;55.872;37.462;2023-06-22T08:17:25;5.88;;;3.13;;
66384;SDS011;53426;55.872;37.462;2023-06-22T08:19:51;10.00;;;3.53;;
66384;SDS011;53426;55.872;37.462;2023-06-22T08:22:17;4.30;;;2.92;;
66384;SDS011;53426;55.872;37.462;2023-06-22T08:24:44;4.78;;;3.00;;
66384;SDS011;53426;55.872;37.462;2023-06-22T08:27:10;4.32;;;3.10;;
66384;SDS011;53426;55.872;37.462;2023-06-22T08:29:40;4.75;;;2.90;;
66384;SDS011;53426;55.872;37.462;2023-06-22T08:32:11;3.78;;;3.05;;
66384;SDS011;53426;55.872;37.462;2023-06-22T08:34:37;5.13;;;3.15;;
66384;SDS011;53426;55.872;37.462;2023-06-22T08:37:10;4.53;;;3.08;;
66384;SDS011;53426;55.872;37.462;2023-06-22T08:39:36;3.42;;;2.60;;
66384;SDS011;53426;55.872;37.462;2023-06-22T08:42:02;4.10;;;3.05;;
66384;SDS011;53426;55.872;37.462;2023-06-22T08:44:28;4.20;;;2.80;;
66384;SDS011;53426;55.872;37.462;2023-06-22T08:46:54;4.32;;;2.90;;
66384;SDS011;53426;55.872;37.462;2023-06-22T08:49:20;3.67;;;2.80;;
66384;SDS011;53426;55.872;37.462;2023-06-22T08:51:46;3.65;;;2.72;;
66384;SDS011;53426;55.872;37.462;2023-06-22T08:54:14;4.43;;;3.22;;
66384;SDS011;53426;55.872;37.462;2023-06-22T08:56:40;3.67;;;3.05;;
66384;SDS011;53426;55.872;37.462;2023-06-22T08:59:09;3.72;;;3.40;;
66384;SDS011;53426;55.872;37.462;2023-06-22T09:01:35;4.72;;;2.92;;
66384;SDS011;53426;55.872;37.462;2023-06-22T09:04:00;5.38;;;3.30;;
66384;SDS011;53426;55.872;37.462;2023-06-22T09:06:27;6.40;;;3.03;;
66384;SDS011;53426;55.872;37.462;2023-06-22T09:08:52;5.38;;;3.10;;
66384;SDS011;53426;55.872;37.462;2023-06-22T09:11:18;4.40;;;2.80;;
66384;SDS011;53426;55.872;37.462;2023-06-22T09:13:44;8.13;;;3.15;;
66384;SDS011;53426;55.872;37.462;2023-06-22T09:16:11;3.67;;;3.20;;
66384;SDS011;53426;55.872;37.462;2023-06-22T09:18:37;8.15;;;3.22;;
66384;SDS011;53426;55.872;37.462;2023-06-22T09:21:03;4.40;;;2.67;;
66384;SDS011;53426;55.872;37.462;2023-06-22T09:23:29;4.35;;;3.03;;
66384;SDS011;53426;55.872;37.462;2023-06-22T09:25:55;4.45;;;3.10;;
66384;SDS011;53426;55.872;37.462;2023-06-22T09:28:24;5.38;;;2.90;;
66384;SDS011;53426;55.872;37.462;2023-06-22T09:30:51;3.08;;;2.83;;
66384;SDS011;53426;55.872;37.462;2023-06-22T09:33:18;6.38;;;3.20;;
66384;SDS011;53426;55.872;37.462;2023-06-22T09:35:45;4.30;;;3.17;;
66384;SDS011;53426;55.872;37.462;2023-06-22T09:40:50;4.65;;;3.10;;
66384;SDS011;53426;55.872;37.462;2023-06-22T09:43:23;8.77;;;3.10;;
66384;SDS011;53426;55.872;37.462;2023-06-22T09:45:52;3.90;;;3.00;;
66384;SDS011;53426;55.872;37.462;2023-06-22T09:48:18;4.50;;;3.47;;
66384;SDS011;53426;55.872;37.462;2023-06-22T09:50:45;3.45;;;3.15;;
66384;SDS011;53426;55.872;37.462;2023-06-22T09:53:11;3.85;;;3.13;;
66384;SDS011;53426;55.872;37.462;2023-06-22T09:55:36;4.55;;;3.08;;
66384;SDS011;53426;55.872;37.462;2023-06-22T09:58:02;8.63;;;3.00;;
66384;SDS011;53426;55.872;37.462;2023-06-22T10:00:28;3.90;;;3.08;;
66384;SDS011;53426;55.872;37.462;2023-06-22T10:02:54;6.60;;;2.95;;
66384;SDS011;53426;55.872;37.462;2023-06-22T10:05:21;7.50;;;3.55;;
66384;SDS011;53426;55.872;37.462;2023-06-22T10:07:47;5.32;;;3.33;;
66384;SDS011;53426;55.872;37.462;2023-06-22T10:10:13;4.55;;;3.08;;
66384;SDS011;53426;55.872;37.462;2023-06-22T10:12:45;6.95;;;3.67;;
66384;SDS011;53426;55.872;37.462;2023-06-22T10:15:13;6.97;;;3.22;;
66384;SDS011;53426;55.872;37.462;2023-06-22T10:17:39;13.13;;;3.67;;
66384;SDS011;53426;55.872;37.462;2023-06-22T10:20:06;3.67;;;3.00;;
66384;SDS011;53426;55.872;37.462;2023-06-22T10:22:40;5.75;;;3.20;;
66384;SDS011;53426;55.872;37.462;2023-06-22T10:25:10;4.13;;;3.40;;
66384;SDS011;53426;55.872;37.462;2023-06-22T10:27:43;4.78;;;4.38;;
66384;SDS011;53426;55.872;37.462;2023-06-22T10:30:10;7.40;;;3.60;;
66384;SDS011;53426;55.872;37.462;2023-06-22T10:32:38;5.78;;;3.33;;
66384;SDS011;53426;55.872;37.462;2023-06-22T10:35:08;4.32;;;3.50;;
66384;SDS011;53426;55.872;37.462;2023-06-22T10:37:45;3.65;;;3.35;;
66384;SDS011;53426;55.872;37.462;2023-06-22T10:40:13;7.30;;;3.30;;
66384;SDS011;53426;55.872;37.462;2023-06-22T10:42:40;6.57;;;3.00;;
66384;SDS011;53426;55.872;37.462;2023-06-22T10:51:02;7.10;;;3.67;;
66384;SDS011;53426;55.872;37.462;2023-06-22T10:53:31;10.63;;;6.53;;
66384;SDS011;53426;55.872;37.462;2023-06-22T10:55:57;9.77;;;4.20;;
66384;SDS011;53426;55.872;37.462;2023-06-22T10:58:23;3.55;;;3.25;;
66384;SDS011;53426;55.872;37.462;2023-06-22T11:00:49;8.40;;;4.35;;
66384;SDS011;53426;55.872;37.462;2023-06-22T11:03:15;5.20;;;4.03;;
66384;SDS011;53426;55.872;37.462;2023-06-22T11:05:42;7.30;;;3.63;;
66384;SDS011;53426;55.872;37.462;2023-06-22T11:08:08;10.52;;;3.88;;
66384;SDS011;53426;55.872;37.462;2023-06-22T11:10:34;4.10;;;3.80;;
66384;SDS011;53426;55.872;37.462;2023-06-22T11:13:00;5.50;;;4.10;;
66384;SDS011;53426;55.872;37.462;2023-06-22T11:15:25;9.98;;;4.10;;
66384;SDS011;53426;55.872;37.462;2023-06-22T11:17:51;4.40;;;4.00;;
66384;SDS011;53426;55.872;37.462;2023-06-22T11:20:17;4.25;;;3.47;;
66384;SDS011;53426;55.872;37.462;2023-06-22T11:22:43;3.88;;;3.55;;
66384;SDS011;53426;55.872;37.462;2023-06-22T11:25:10;4.32;;;3.80;;
66384;SDS011;53426;55.872;37.462;2023-06-22T11:27:37;4.80;;;3.90;;
66384;SDS011;53426;55.872;37.462;2023-06-22T11:30:04;4.85;;;4.25;;
66384;SDS011;53426;55.872;37.462;2023-06-22T11:32:30;11.15;;;3.90;;
66384;SDS011;53426;55.872;37.462;2023-06-22T11:34:56;7.95;;;3.90;;
66384;SDS011;53426;55.872;37.462;2023-06-22T11:37:23;4.63;;;3.58;;
66384;SDS011;53426;55.872;37.462;2023-06-22T11:39:50;10.38;;;4.50;;
66384;SDS011;53426;55.872;37.462;2023-06-22T11:42:20;4.40;;;4.00;;
66384;SDS011;53426;55.872;37.462;2023-06-22T11:44:51;12.13;;;5.47;;
66384;SDS011;53426;55.872;37.462;2023-06-22T11:47:17;6.03;;;4.53;;
66384;SDS011;53426;55.872;37.462;2023-06-22T11:49:43;9.02;;;4.18;;
66384;SDS011;53426;55.872;37.462;2023-06-22T11:52:11;4.55;;;4.15;;
66384;SDS011;53426;55.872;37.462;2023-06-22T11:54:37;4.63;;;4.18;;
66384;SDS011;53426;55.872;37.462;2023-06-22T11:57:04;6.63;;;4.35;;
66384;SDS011;53426;55.872;37.462;2023-06-22T11:59:29;4.95;;;4.40;;
66384;SDS011;53426;55.872;37.462;2023-06-22T12:01:56;4.88;;;4.28;;
66384;SDS011;53426;55.872;37.462;2023-06-22T12:04:23;7.85;;;4.13;;
66384;SDS011;53426;55.872;37.462;2023-06-22T12:06:49;5.93;;;4.18;;
66384;SDS011;53426;55.872;37.462;2023-06-22T12:09:23;8.10;;;4.25;;
66384;SDS011;53426;55.872;37.462;2023-06-22T12:11:49;4.40;;;4.00;;
66384;SDS011;53426;55.872;37.462;2023-06-22T12:14:15;6.25;;;4.03;;
66384;SDS011;53426;55.872;37.462;2023-06-22T12:16:44;4.80;;;4.20;;
66384;SDS011;53426;55.872;37.462;2023-06-22T12:19:10;6.78;;;4.32;;
66384;SDS011;53426;55.872;37.462;2023-06-22T12:21:37;4.65;;;4.20;;
66384;SDS011;53426;55.872;37.462;2023-06-22T12:24:03;9.02;;;4.43;;
66384;SDS011;53426;55.872;37.462;2023-06-22T12:26:29;5.53;;;4.35;;
66384;SDS011;53426;55.872;37.462;2023-06-22T12:28:55;6.65;;;4.85;;
66384;SDS011;53426;55.872;37.462;2023-06-22T12:31:21;4.97;;;4.13;;
66384;SDS011;53426;55.872;37.462;2023-06-22T12:33:47;8.30;;;4.65;;
66384;SDS011;53426;55.872;37.462;2023-06-22T12:36:13;5.18;;;4.57;;
66384;SDS011;53426;55.872;37.462;2023-06-22T12:38:39;5.32;;;4.45;;
66384;SDS011;53426;55.872;37.462;2023-06-22T12:41:05;5.43;;;4.28;;
66384;SDS011;53426;55.872;37.462;2023-06-22T12:46:28;6.68;;;4.32;;
66384;SDS011;53426;55.872;37.462;2023-06-22T12:48:58;8.00;;;4.35;;
66384;SDS011;53426;55.872;37.462;2023-06-22T12:51:26;7.93;;;3.90;;
66384;SDS011;53426;55.872;37.462;2023-06-22T12:53:55;4.45;;;4.05;;
66384;SDS011;53426;55.872;37.462;2023-06-22T12:56:22;5.57;;;4.22;;
66384;SDS011;53426;55.872;37.462;2023-06-22T12:58:48;6.53;;;4.40;;
66384;SDS011;53426;55.872;37.462;2023-06-22T13:01:14;9.73;;;4.35;;
66384;SDS011;53426;55.872;37.462;2023-06-22T13:03:40;6.07;;;4.50;;
66384;SDS011;53426;55.872;37.462;2023-06-22T13:06:08;8.82;;;4.65;;
66384;SDS011;53426;55.872;37.462;2023-06-22T13:08:43;5.13;;;4.72;;
66384;SDS011;53426;55.872;37.462;2023-06-22T13:11:12;4.50;;;4.20;;
66384;SDS011;53426;55.872;37.462;2023-06-22T13:13:46;7.05;;;4.25;;
66384;SDS011;53426;55.872;37.462;2023-06-22T13:16:12;5.72;;;4.20;;
66384;SDS011;53426;55.872;37.462;2023-06-22T13:18:39;5.22;;;4.40;;
66384;SDS011;53426;55.872;37.462;2023-06-22T13:21:06;4.50;;;4.10;;
66384;SDS011;53426;55.872;37.462;2023-06-22T13:23:32;4.95;;;4.53;;
66384;SDS011;53426;55.872;37.462;2023-06-22T13:25:59;4.97;;;4.57;;
66384;SDS011;53426;55.872;37.462;2023-06-22T13:28:25;6.60;;;4.30;;
66384;SDS011;53426;55.872;37.462;2023-06-22T13:30:51;6.43;;;4.15;;
66384;SDS011;53426;55.872;37.462;2023-06-22T13:36:16;9.15;;;4.70;;
66384;SDS011;53426;55.872;37.462;2023-06-22T13:39:13;5.90;;;4.50;;
66384;SDS011;53426;55.872;37.462;2023-06-22T13:41:45;5.75;;;4.78;;
66384;SDS011;53426;55.872;37.462;2023-06-22T13:47:50;7.28;;;4.45;;
66384;SDS011;53426;55.872;37.462;2023-06-22T13:56:12;12.43;;;5.28;;
66384;SDS011;53426;55.872;37.462;2023-06-22T13:58:38;4.90;;;4.40;;
66384;SDS011;53426;55.872;37.462;2023-06-22T14:01:13;5.78;;;4.65;;
66384;SDS011;53426;55.872;37.462;2023-06-22T14:03:45;5.05;;;4.55;;
66384;SDS011;53426;55.872;37.462;2023-06-22T14:06:13;4.95;;;4.47;;
66384;SDS011;53426;55.872;37.462;2023-06-22T14:11:36;9.98;;;8.75;;
66384;SDS011;53426;55.872;37.462;2023-06-22T14:14:04;6.72;;;4.32;;
66384;SDS011;53426;55.872;37.462;2023-06-22T14:16:30;11.20;;;5.38;;
66384;SDS011;53426;55.872;37.462;2023-06-22T14:18:56;6.45;;;4.18;;
66384;SDS011;53426;55.872;37.462;2023-06-22T14:21:21;5.47;;;4.50;;
66384;SDS011;53426;55.872;37.462;2023-06-22T14:23:47;7.93;;;5.57;;
66384;SDS011;53426;55.872;37.462;2023-06-22T14:26:15;4.63;;;4.18;;
66384;SDS011;53426;55.872;37.462;2023-06-22T14:28:45;6.35;;;5.75;;
66384;SDS011;53426;55.872;37.462;2023-06-22T14:31:21;5.93;;;4.85;;
66384;SDS011;53426;55.872;37.462;2023-06-22T14:33:52;7.63;;;5.45;;
66384;SDS011;53426;55.872;37.462;2023-06-22T14:36:17;5.15;;;4.75;;
66384;SDS011;53426;55.872;37.462;2023-06-22T14:39:15;8.25;;;4.85;;
66384;SDS011;53426;55.872;37.462;2023-06-22T14:41:45;6.00;;;4.70;;
66384;SDS011;53426;55.872;37.462;2023-06-22T14:44:14;7.03;;;4.40;;
66384;SDS011;53426;55.872;37.462;2023-06-22T14:46:41;4.97;;;4.55;;
66384;SDS011;53426;55.872;37.462;2023-06-22T14:49:08;5.88;;;4.45;;
66384;SDS011;53426;55.872;37.462;2023-06-22T14:51:35;5.20;;;4.70;;
66384;SDS011;53426;55.872;37.462;2023-06-22T14:54:02;4.75;;;4.38;;
66384;SDS011;53426;55.872;37.462;2023-06-22T14:56:28;5.72;;;4.30;;
66384;SDS011;53426;55.872;37.462;2023-06-22T14:58:55;10.23;;;4.47;;
66384;SDS011;53426;55.872;37.462;2023-06-22T15:01:24;9.85;;;4.53;;
66384;SDS011;53426;55.872;37.462;2023-06-22T15:03:51;5.10;;;4.65;;
66384;SDS011;53426;55.872;37.462;2023-06-22T15:06:17;4.90;;;4.40;;
66384;SDS011;53426;55.872;37.462;2023-06-22T15:08:44;21.75;;;4.85;;
66384;SDS011;53426;55.872;37.462;2023-06-22T15:11:09;7.20;;;4.60;;
66384;SDS011;53426;55.872;37.462;2023-06-22T15:13:40;8.32;;;4.10;;
66384;SDS011;53426;55.872;37.462;2023-06-22T15:16:07;6.82;;;4.32;;
66384;SDS011;53426;55.872;37.462;2023-06-22T15:18:38;5.68;;;3.90;;
66384;SDS011;53426;55.872;37.462;2023-06-22T15:27:05;6.15;;;4.18;;
66384;SDS011;53426;55.872;37.462;2023-06-22T15:29:31;5.63;;;4.00;;